Time;durP1;ratioP1;P1;durP2;ratioP2;P2;SDS_P1;SDS_P2;PMS_P1;PMS_P2;Temp;Humidity;BMP_temperature;BMP_pressure;BME280_temperature;BME280_humidity;BME280_pressure;Samples;Min_cycle;Max_cycle;Signal;HPM_P1;HPM_P2
2023/04/07 00:01:26;;;;;;;;;;;;;;;5.79;56.71;100220.50;5357884;32;32995;-91
2023/04/07 00:04:28;;;;;;;;;;;;;;;6.41;54.07;100215.62;5319283;32;33538;-89
2023/04/07 00:07:30;;;;;;;;;;;;;;;5.53;57.21;100215.00;5320428;32;32282;-90
2023/04/07 00:10:37;;;;;;;;;;;;;;;6.16;56.23;100222.31;5359531;32;34277;-88
2023/04/07 00:13:40;;;;;;;;;;;;;;;6.29;56.21;100215.06;5356059;32;43170;-88
2023/04/07 00:16:42;;;;;;;;;;;;;;;6.44;54.87;100212.06;5363207;32;34200;-89
2023/04/07 00:19:44;;;;;;;;;;;;;;;5.40;57.64;100207.44;5353096;32;33309;-92
2023/04/07 00:22:47;;;;;;;;;;;;;;;5.96;56.48;100207.13;5344913;32;33481;-91
2023/04/07 00:25:49;;;;;;;;;;;;;;;6.67;54.34;100208.88;5345755;32;34128;-88
2023/04/07 00:28:51;;;;;;;;;;;;;;;7.06;52.34;100197.34;5356504;32;34295;-89
2023/04/07 00:31:53;;;;;;;;;;;;;;;6.39;53.32;100198.28;5345436;32;32535;-87
2023/04/07 00:34:55;;;;;;;;;;;;;;;5.26;56.80;100203.41;5352837;32;32965;-91
2023/04/07 00:37:58;;;;;;;;;;;;;;;5.37;57.79;100206.66;5347767;32;34195;-91
2023/04/07 00:41:00;;;;;;;;;;;;;;;5.31;57.62;100202.44;5349938;32;34696;-90
2023/04/07 00:44:02;;;;;;;;;;;;;;;5.41;57.21;100196.16;5364350;32;32524;-91
2023/04/07 00:47:04;;;;;;;;;;;;;;;5.59;56.88;100201.84;5350774;32;32920;-91
2023/04/07 00:50:07;;;;;;;;;;;;;;;6.10;54.76;100188.53;5341497;32;34524;-90
2023/04/07 00:53:09;;;;;;;;;;;;;;;4.97;57.82;100197.03;5346641;32;45285;-87
2023/04/07 00:56:12;;;;;;;;;;;;;;;5.89;54.93;100180.28;5330093;32;33638;-90
2023/04/07 00:59:14;;;;;;;;;;;;;;;6.68;51.65;100185.31;5349646;32;33051;-92
2023/04/07 01:02:20;;;;;;;;;;;;;;;5.40;55.49;100193.56;5342646;32;33018;-87
2023/04/07 01:05:29;;;;;;;;;;;;;;;6.92;52.14;100178.59;5354930;32;33014;-88
2023/04/07 01:08:49;;;;;;;;;;;;;;;6.24;52.75;100182.09;5370188;32;34322;-90
2023/04/07 01:11:51;;;;;;;;;;;;;;;6.36;53.54;100185.28;5352815;32;33631;-91
2023/04/07 01:14:55;;;;;;;;;;;;;;;6.05;54.18;100190.41;5361855;32;33568;-91
2023/04/07 01:18:02;;;;;;;;;;;;;;;6.94;53.04;100178.53;5342472;32;33129;-90
2023/04/07 01:21:08;;;;;;;;;;;;;;;6.25;53.68;100175.13;5368013;32;34168;-88
2023/04/07 01:24:17;;;;;;;;;;;;;;;5.51;56.64;100169.88;5334379;32;42607;-92
2023/04/07 01:27:22;;;;;;;;;;;;;;;5.74;57.18;100169.37;5362723;32;33530;-87
2023/04/07 01:30:24;;;;;;;;;;;;;;;5.81;57.74;100165.72;5342242;32;35322;-88
2023/04/07 01:33:26;;;;;;;;;;;;;;;6.66;54.94;100168.00;5358882;32;34147;-92
2023/04/07 01:36:28;;;;;;;;;;;;;;;6.16;55.60;100167.53;5367432;32;34646;-91
2023/04/07 01:39:31;;;;;;;;;;;;;;;6.84;53.30;100166.66;5332254;32;32874;-89
2023/04/07 01:42:33;;;;;;;;;;;;;;;6.03;56.12;100168.72;5350073;32;33414;-88
2023/04/07 01:45:35;;;;;;;;;;;;;;;5.96;55.76;100154.97;5346053;32;33033;-89
2023/04/07 01:48:37;;;;;;;;;;;;;;;6.95;53.51;100152.37;5358950;32;32830;-91
2023/04/07 01:51:39;;;;;;;;;;;;;;;7.17;52.67;100151.78;5342618;32;46250;-91
2023/04/07 01:54:41;;;;;;;;;;;;;;;7.80;50.06;100155.97;5339869;32;33782;-90
2023/04/07 01:57:43;;;;;;;;;;;;;;;7.22;50.88;100162.97;5340236;32;33046;-90
2023/04/07 02:00:45;;;;;;;;;;;;;;;6.85;51.12;100150.06;5331466;32;33195;-89
2023/04/07 02:04:06;;;;;;;;;;;;;;;7.37;50.79;100159.03;5335022;32;33640;-88
2023/04/07 02:07:10;;;;;;;;;;;;;;;6.36;52.28;100154.81;5343557;32;44676;-89
2023/04/07 02:10:12;;;;;;;;;;;;;;;6.11;53.80;100154.56;5365096;32;31973;-88
2023/04/07 02:13:15;;;;;;;;;;;;;;;6.41;53.29;100152.97;5347410;32;34317;-90
2023/04/07 02:16:17;;;;;;;;;;;;;;;6.72;52.03;100157.38;5352625;32;32331;-90
2023/04/07 02:19:20;;;;;;;;;;;;;;;6.91;51.56;100157.75;5355271;32;34980;-88
2023/04/07 02:22:22;;;;;;;;;;;;;;;7.26;50.58;100156.72;5331561;32;33686;-87
2023/04/07 02:25:27;;;;;;;;;;;;;;;6.75;50.93;100158.13;5351039;32;34248;-89
2023/04/07 02:28:30;;;;;;;;;;;;;;;6.40;52.88;100156.47;5336457;32;34273;-91
2023/04/07 02:31:32;;;;;;;;;;;;;;;6.23;53.29;100153.41;5338707;32;33012;-89
2023/04/07 02:34:35;;;;;;;;;;;;;;;5.91;54.38;100160.28;5362605;32;34246;-90
2023/04/07 02:37:39;;;;;;;;;;;;;;;6.21;54.01;100155.22;5345060;32;43813;-90
2023/04/07 02:40:42;;;;;;;;;;;;;;;6.17;53.37;100150.97;5341692;32;33462;-88
2023/04/07 02:43:44;;;;;;;;;;;;;;;5.47;55.26;100153.44;5346305;32;33161;-89
2023/04/07 02:46:46;;;;;;;;;;;;;;;5.96;54.45;100160.19;5349071;32;34290;-90
2023/04/07 02:49:48;;;;;;;;;;;;;;;6.04;54.08;100155.63;5363230;32;33989;-90
2023/04/07 02:52:50;;;;;;;;;;;;;;;5.83;54.93;100166.53;5334564;32;34605;-88
2023/04/07 02:55:52;;;;;;;;;;;;;;;6.41;53.37;100158.19;5358446;32;34259;-90
2023/04/07 02:58:54;;;;;;;;;;;;;;;6.02;53.71;100159.19;5333467;32;32705;-88
2023/04/07 03:01:56;;;;;;;;;;;;;;;6.22;52.96;100156.94;5356743;32;33061;-88
2023/04/07 03:04:59;;;;;;;;;;;;;;;6.68;52.51;100146.16;5321827;32;33225;-89
2023/04/07 03:08:01;;;;;;;;;;;;;;;7.04;51.36;100138.19;5372880;32;35760;-89
2023/04/07 03:11:03;;;;;;;;;;;;;;;6.18;53.68;100150.06;5345752;32;33919;-89
2023/04/07 03:14:05;;;;;;;;;;;;;;;6.13;54.03;100146.72;5337006;32;33204;-89
2023/04/07 03:17:07;;;;;;;;;;;;;;;6.56;52.80;100150.84;5363766;32;33689;-90
2023/04/07 03:20:09;;;;;;;;;;;;;;;6.02;53.78;100148.75;5328234;32;43651;-87
2023/04/07 03:23:11;;;;;;;;;;;;;;;6.27;53.61;100149.84;5360398;32;33573;-88
2023/04/07 03:26:14;;;;;;;;;;;;;;;6.53;52.89;100146.56;5334679;32;32895;-90
2023/04/07 03:29:16;;;;;;;;;;;;;;;5.58;55.58;100150.59;5339256;32;34020;-91
2023/04/07 03:32:18;;;;;;;;;;;;;;;5.71;55.07;100152.87;5333698;32;32945;-90
2023/04/07 03:35:20;;;;;;;;;;;;;;;6.13;53.75;100149.34;5346238;32;34454;-89
2023/04/07 03:38:22;;;;;;;;;;;;;;;6.80;52.14;100155.41;5361735;32;35003;-90
2023/04/07 03:41:24;;;;;;;;;;;;;;;6.27;53.26;100149.84;5330132;32;32858;-88
2023/04/07 03:44:26;;;;;;;;;;;;;;;6.50;53.06;100151.84;5366177;32;33130;-88
2023/04/07 03:47:28;;;;;;;;;;;;;;;5.30;56.42;100159.03;5322968;32;34192;-89
2023/04/07 03:50:31;;;;;;;;;;;;;;;5.40;56.08;100154.47;5358802;32;33933;-88
2023/04/07 03:53:32;;;;;;;;;;;;;;;6.01;54.52;100147.88;5339843;32;34537;-90
2023/04/07 03:56:36;;;;;;;;;;;;;;;5.79;54.99;100157.06;5353993;32;33876;-88
2023/04/07 03:59:38;;;;;;;;;;;;;;;6.11;54.39;100159.78;5351291;32;34387;-89
2023/04/07 04:02:40;;;;;;;;;;;;;;;6.61;52.54;100160.28;5329841;32;44962;-91
2023/04/07 04:05:42;;;;;;;;;;;;;;;6.06;53.92;100166.03;5312293;32;34250;-91
2023/04/07 04:08:44;;;;;;;;;;;;;;;5.43;55.51;100163.06;5329147;32;33100;-89
2023/04/07 04:11:46;;;;;;;;;;;;;;;6.66;52.29;100168.84;5356466;32;33478;-89
2023/04/07 04:14:48;;;;;;;;;;;;;;;5.91;54.49;100175.94;5333777;32;33194;-89
2023/04/07 04:17:50;;;;;;;;;;;;;;;4.98;57.60;100182.25;5334333;32;32060;-91
2023/04/07 04:20:53;;;;;;;;;;;;;;;6.14;55.09;100164.94;5357232;32;35078;-88
2023/04/07 04:23:55;;;;;;;;;;;;;;;5.72;55.51;100182.41;5348523;32;33247;-90
2023/04/07 04:26:56;;;;;;;;;;;;;;;5.77;55.88;100183.19;5363568;32;33044;-90
2023/04/07 04:29:59;;;;;;;;;;;;;;;5.53;57.09;100181.97;5346915;32;33222;-89
2023/04/07 04:33:01;;;;;;;;;;;;;;;5.37;56.98;100185.81;5343711;32;32883;-89
2023/04/07 04:36:04;;;;;;;;;;;;;;;5.57;57.07;100183.63;5350935;32;33356;-91
2023/04/07 04:39:06;;;;;;;;;;;;;;;5.39;57.46;100182.28;5346963;32;33443;-88
2023/04/07 04:42:09;;;;;;;;;;;;;;;5.84;56.39;100173.47;5351431;32;44614;-90
2023/04/07 04:45:11;;;;;;;;;;;;;;;5.01;58.82;100177.84;5357997;32;34621;-88
2023/04/07 04:48:13;;;;;;;;;;;;;;;5.33;58.85;100185.00;5357165;32;33089;-90
2023/04/07 04:51:15;;;;;;;;;;;;;;;5.08;58.94;100194.19;5339649;32;34188;-89
2023/04/07 04:54:18;;;;;;;;;;;;;;;5.54;57.73;100199.34;5351103;32;33066;-89
2023/04/07 04:57:20;;;;;;;;;;;;;;;5.55;57.21;100187.19;5347071;32;33607;-89
2023/04/07 05:00:22;;;;;;;;;;;;;;;5.93;56.51;100196.78;5347633;32;34647;-90
2023/04/07 05:03:27;;;;;;;;;;;;;;;5.62;57.27;100181.78;5345574;32;33660;-90
2023/04/07 05:06:30;;;;;;;;;;;;;;;5.18;57.80;100205.31;5322425;32;32638;-89
2023/04/07 05:09:32;;;;;;;;;;;;;;;5.10;59.03;100221.97;5358444;32;31484;-90
2023/04/07 05:12:35;;;;;;;;;;;;;;;5.39;57.72;100205.72;5337179;32;33292;-88
2023/04/07 05:15:37;;;;;;;;;;;;;;;5.70;56.90;100205.94;5358192;32;33084;-90
2023/04/07 05:18:39;;;;;;;;;;;;;;;5.53;57.78;100209.78;5360191;32;44826;-88
2023/04/07 05:21:41;;;;;;;;;;;;;;;5.67;57.63;100211.22;5327424;32;33708;-90
2023/04/07 05:24:43;;;;;;;;;;;;;;;5.92;56.79;100213.31;5351161;32;35143;-91
2023/04/07 05:27:46;;;;;;;;;;;;;;;5.08;59.10;100215.03;5341639;32;33371;-89
2023/04/07 05:30:48;;;;;;;;;;;;;;;6.19;56.89;100210.06;5359262;32;34075;-87
2023/04/07 05:33:50;;;;;;;;;;;;;;;5.68;57.62;100220.75;5356637;32;34266;-89
2023/04/07 05:36:52;;;;;;;;;;;;;;;6.65;55.04;100221.13;5357579;32;34537;-91
2023/04/07 05:39:55;;;;;;;;;;;;;;;5.38;58.76;100218.78;5356455;32;36555;-88
2023/04/07 05:42:57;;;;;;;;;;;;;;;5.37;58.52;100230.13;5351199;32;32913;-88
2023/04/07 05:46:00;;;;;;;;;;;;;;;6.97;54.30;100225.50;5363600;32;33041;-89
2023/04/07 05:49:02;;;;;;;;;;;;;;;7.13;53.34;100210.25;5334275;32;34485;-88
2023/04/07 05:52:20;;;;;;;;;;;;;;;5.77;57.75;100222.31;5356148;32;34303;-90
2023/04/07 05:55:22;;;;;;;;;;;;;;;5.54;57.50;100228.03;5342018;32;34469;-90
2023/04/07 05:58:25;;;;;;;;;;;;;;;5.55;58.01;100229.75;5325221;32;33961;-91
2023/04/07 06:01:28;;;;;;;;;;;;;;;5.70;57.79;100229.41;5353966;32;34843;-88
2023/04/07 06:04:31;;;;;;;;;;;;;;;5.59;58.21;100230.53;5317400;32;34177;-90
2023/04/07 06:07:33;;;;;;;;;;;;;;;6.34;56.59;100227.09;5337936;32;34569;-88
2023/04/07 06:10:35;;;;;;;;;;;;;;;7.01;53.78;100224.50;5312590;32;957372;-90
2023/04/07 06:13:37;;;;;;;;;;;;;;;5.82;56.74;100227.44;5356329;32;33850;-87
2023/04/07 06:16:39;;;;;;;;;;;;;;;6.89;54.23;100219.59;5350741;32;44711;-89
2023/04/07 06:19:42;;;;;;;;;;;;;;;6.53;55.21;100219.69;5344233;32;33313;-90
2023/04/07 06:22:44;;;;;;;;;;;;;;;7.09;53.90;100225.19;5335766;32;33188;-90
2023/04/07 06:25:51;;;;;;;;;;;;;;;5.22;59.25;100231.28;5348517;32;33642;-89
2023/04/07 06:28:54;;;;;;;;;;;;;;;6.29;56.62;100228.97;5349709;32;34300;-89
2023/04/07 06:31:56;;;;;;;;;;;;;;;6.60;55.72;100231.69;5352067;32;33725;-90
2023/04/07 06:34:58;;;;;;;;;;;;;;;6.01;56.80;100225.28;5355625;32;33182;-90
2023/04/07 06:38:01;;;;;;;;;;;;;;;6.51;56.22;100238.00;5326795;32;31658;-87
2023/04/07 06:41:03;;;;;;;;;;;;;;;7.22;55.46;100237.00;5669165;27;34363;-67
2023/04/07 06:44:05;;;;;;;;;;;;;;;6.32;58.13;100244.56;5388221;32;33064;-67
2023/04/07 06:47:10;;;;;;;;;;;;;;;6.09;58.92;100249.44;5749497;27;35369;-71
2023/04/07 06:50:12;;;;;;;;;;;;;;;5.64;59.86;100252.16;5353655;32;33533;-74
2023/04/07 06:53:14;;;;;;;;;;;;;;;5.81;60.72;100262.22;5345143;32;33891;-70
2023/04/07 06:56:16;;;;;;;;;;;;;;;5.78;60.62;100257.06;5355049;32;33973;-74
2023/04/07 06:59:18;;;;;;;;;;;;;;;6.77;58.27;100252.16;5733178;27;34226;-96
2023/04/07 07:02:21;;;;;;;;;;;;;;;6.46;59.52;100262.50;5396632;32;33414;-96
2023/04/07 07:05:24;;;;;;;;;;;;;;;6.18;60.07;100265.78;5385645;32;32921;-95
2023/04/07 07:08:27;;;;;;;;;;;;;;;5.53;63.49;100269.75;5385558;32;33539;-95
2023/04/07 07:11:30;;;;;;;;;;;;;;;6.21;62.41;100275.28;5380748;32;33726;-95
2023/04/07 07:14:33;;;;;;;;;;;;;;;6.22;61.34;100276.97;5375553;32;34556;-96
2023/04/07 07:17:36;;;;;;;;;;;;;;;6.01;61.69;100277.47;5388563;32;32666;-96
2023/04/07 07:20:38;;;;;;;;;;;;;;;6.54;59.80;100284.06;5368687;32;33671;-95
2023/04/07 07:23:40;;;;;;;;;;;;;;;5.95;61.98;100289.75;5393006;32;43166;-96
2023/04/07 07:26:43;;;;;;;;;;;;;;;6.22;63.01;100293.50;5381276;32;44929;-94
2023/04/07 07:29:46;;;;;;;;;;;;;;;6.96;60.19;100300.44;5382643;32;33122;-96
2023/04/07 07:32:49;;;;;;;;;;;;;;;5.92;62.05;100304.59;5374776;32;33391;-96
2023/04/07 07:35:52;;;;;;;;;;;;;;;6.74;61.19;100294.87;5373558;32;33992;-95
2023/04/07 07:38:54;;;;;;;;;;;;;;;6.54;60.44;100307.56;5389418;32;32988;-95
2023/04/07 07:41:57;;;;;;;;;;;;;;;7.06;59.00;100298.41;5375718;32;33063;-94
2023/04/07 07:45:00;;;;;;;;;;;;;;;7.16;59.24;100299.91;5373983;32;34249;-95
2023/04/07 07:48:03;;;;;;;;;;;;;;;7.53;59.57;100298.88;5380647;32;32877;-95
2023/04/07 07:51:06;;;;;;;;;;;;;;;5.87;64.99;100317.72;5386726;32;32666;-95
2023/04/07 07:54:08;;;;;;;;;;;;;;;7.34;62.23;100311.59;5382332;32;33237;-96
2023/04/07 07:57:11;;;;;;;;;;;;;;;7.04;61.77;100316.75;5364037;32;44714;-95
2023/04/07 08:00:13;;;;;;;;;;;;;;;7.32;60.77;100316.03;5403811;32;33072;-94
2023/04/07 08:03:16;;;;;;;;;;;;;;;6.47;62.87;100329.47;5382446;32;32422;-94
2023/04/07 08:06:18;;;;;;;;;;;;;;;6.47;63.78;100332.09;5382499;32;34061;-95
2023/04/07 08:09:21;;;;;;;;;;;;;;;6.01;63.45;100342.69;5371320;32;32965;-95
2023/04/07 08:12:23;;;;;;;;;;;;;;;7.38;60.25;100336.78;5365964;32;33166;-95
2023/04/07 08:15:27;;;;;;;;;;;;;;;6.74;61.64;100328.81;5382715;32;32281;-95
2023/04/07 08:18:29;;;;;;;;;;;;;;;8.59;56.24;100331.53;5368363;32;33866;-96
2023/04/07 08:21:32;;;;;;;;;;;;;;;8.52;56.26;100335.25;5377337;32;33063;-94
2023/04/07 08:24:34;;;;;;;;;;;;;;;8.42;56.16;100328.56;5374570;32;32495;-96
2023/04/07 08:27:37;;;;;;;;;;;;;;;8.67;54.09;100339.13;5380965;32;35436;-96
2023/04/07 08:30:39;;;;;;;;;;;;;;;8.34;56.24;100335.78;5353999;32;32957;-95
2023/04/07 08:33:42;;;;;;;;;;;;;;;7.23;59.11;100343.28;5364866;32;44131;-96
2023/04/07 08:36:48;;;;;;;;;;;;;;;7.15;61.73;100344.34;5365577;32;33709;-96
2023/04/07 08:39:50;;;;;;;;;;;;;;;8.15;56.17;100341.56;5359314;32;33461;-95
2023/04/07 08:42:52;;;;;;;;;;;;;;;8.60;56.20;100340.22;5378185;32;33641;-95
2023/04/07 08:45:59;;;;;;;;;;;;;;;7.60;57.64;100350.16;5386318;32;35873;-96
2023/04/07 08:49:01;;;;;;;;;;;;;;;6.81;59.61;100347.81;5391059;32;32497;-95
2023/04/07 08:52:05;;;;;;;;;;;;;;;7.33;59.47;100352.59;5376902;32;35697;-95
2023/04/07 08:55:11;;;;;;;;;;;;;;;8.49;56.95;100345.78;5358079;32;32924;-96
2023/04/07 08:58:13;;;;;;;;;;;;;;;7.39;57.06;100348.09;5378560;32;32993;-96
2023/04/07 09:01:15;;;;;;;;;;;;;;;6.70;62.91;100357.69;5366026;32;35872;-94
2023/04/07 09:04:21;;;;;;;;;;;;;;;6.36;65.01;100353.22;5376457;32;32487;-95
2023/04/07 09:07:24;;;;;;;;;;;;;;;7.76;59.90;100343.56;5372542;32;34157;-96
2023/04/07 09:10:27;;;;;;;;;;;;;;;7.33;63.33;100349.09;5385141;32;32786;-94
2023/04/07 09:13:32;;;;;;;;;;;;;;;7.59;60.88;100351.03;5373848;32;32076;-95
2023/04/07 09:16:34;;;;;;;;;;;;;;;7.67;59.46;100348.22;5381700;32;33121;-96
2023/04/07 09:19:37;;;;;;;;;;;;;;;8.04;59.24;100342.78;5389152;32;34377;-95
2023/04/07 09:22:44;;;;;;;;;;;;;;;9.43;53.93;100340.94;5371335;32;33078;-94
2023/04/07 09:25:48;;;;;;;;;;;;;;;8.00;57.26;100344.63;5393886;32;43968;-94
2023/04/07 09:28:56;;;;;;;;;;;;;;;8.33;56.30;100345.37;5398495;32;33691;-96
2023/04/07 09:31:58;;;;;;;;;;;;;;;8.24;57.70;100343.03;5372199;32;33373;-94
2023/04/07 09:35:01;;;;;;;;;;;;;;;8.91;56.95;100345.34;5389695;32;32632;-96
2023/04/07 09:38:05;;;;;;;;;;;;;;;7.10;60.91;100349.72;5381695;32;33091;-95
2023/04/07 09:41:15;;;;;;;;;;;;;;;8.57;56.55;100349.06;5389431;32;33294;-94
2023/04/07 09:44:21;;;;;;;;;;;;;;;7.91;57.91;100351.88;5383818;32;45320;-96
2023/04/07 09:47:30;;;;;;;;;;;;;;;9.43;53.65;100348.81;5390516;32;33681;-94
2023/04/07 09:50:34;;;;;;;;;;;;;;;8.53;57.40;100346.56;5381016;32;34471;-95
2023/04/07 09:53:43;;;;;;;;;;;;;;;8.63;57.61;100346.25;5390217;32;33001;-95
2023/04/07 09:56:45;;;;;;;;;;;;;;;7.81;58.15;100357.38;5400490;32;43911;-96
2023/04/07 09:59:47;;;;;;;;;;;;;;;8.49;55.46;100344.94;5379914;32;35119;-94
2023/04/07 10:02:51;;;;;;;;;;;;;;;9.20;53.94;100342.59;5390224;32;32630;-96
2023/04/07 10:05:56;;;;;;;;;;;;;;;8.74;56.16;100345.03;5381656;32;32549;-95
2023/04/07 10:09:00;;;;;;;;;;;;;;;9.50;52.48;100342.44;5383113;32;32520;-95
2023/04/07 10:12:05;;;;;;;;;;;;;;;9.67;51.14;100344.47;5383601;32;32370;-95
2023/04/07 10:15:11;;;;;;;;;;;;;;;8.60;53.77;100341.09;5363066;32;44420;-95
2023/04/07 10:18:14;;;;;;;;;;;;;;;9.91;51.65;100350.59;5392052;32;33811;-94
2023/04/07 10:21:16;;;;;;;;;;;;;;;10.26;50.47;100342.28;5384650;32;32887;-96
2023/04/07 10:24:22;;;;;;;;;;;;;;;9.37;53.17;100352.50;5389537;32;34044;-94
2023/04/07 10:27:50;;;;;;;;;;;;;;;10.09;50.42;100347.28;5388021;32;33686;-96
2023/04/07 10:30:54;;;;;;;;;;;;;;;9.53;52.00;100359.84;5372900;32;33359;-96
2023/04/07 10:33:56;;;;;;;;;;;;;;;9.56;49.89;100355.34;5396278;32;34159;-95
2023/04/07 10:37:19;;;;;;;;;;;;;;;10.14;50.19;100349.75;5419757;32;33692;-95
2023/04/07 10:40:26;;;;;;;;;;;;;;;10.04;49.60;100350.06;5414024;32;33058;-95
2023/04/07 10:43:43;;;;;;;;;;;;;;;9.29;51.00;100348.44;5391738;32;32974;-95
2023/04/07 10:46:50;;;;;;;;;;;;;;;10.05;50.84;100340.44;5406445;32;44526;-96
2023/04/07 10:50:13;;;;;;;;;;;;;;;11.85;45.42;100340.03;5402648;32;33757;-96
2023/04/07 10:56:25;;;;;;;;;;;;;;;11.57;44.77;100343.03;5320670;32;34053;-71
2023/04/07 10:59:28;;;;;;;;;;;;;;;10.33;46.04;100349.94;5311739;32;33910;-70
2023/04/07 11:02:30;;;;;;;;;;;;;;;10.23;47.82;100349.41;5323387;32;34319;-70
2023/04/07 11:05:32;;;;;;;;;;;;;;;10.33;47.95;100348.16;5320604;32;33009;-70
2023/04/07 11:08:35;;;;;;;;;;;;;;;9.09;50.98;100357.00;5311432;32;34130;-70
2023/04/07 11:11:38;;;;;;;;;;;;;;;10.18;48.89;100354.81;5324450;32;33794;-70
2023/04/07 11:14:41;;;;;;;;;;;;;;;10.40;48.37;100349.63;5294172;32;44692;-70
2023/04/07 11:17:42;;;;;;;;;;;;;;;10.23;49.04;100346.78;5318601;32;33511;-70
2023/04/07 11:20:51;;;;;;;;;;;;;;;11.50;45.42;100350.34;5313531;32;33732;-69
2023/04/07 11:23:53;;;;;;;;;;;;;;;9.20;51.38;100363.56;5319953;32;33591;-75
2023/04/07 11:26:55;;;;;;;;;;;;;;;11.11;45.65;100343.22;5340966;32;33549;-70
2023/04/07 11:29:57;;;;;;;;;;;;;;;10.75;46.07;100347.34;5292164;32;35713;-71
2023/04/07 11:32:59;;;;;;;;;;;;;;;10.16;48.39;100350.53;5323348;32;34389;-73
2023/04/07 11:36:01;;;;;;;;;;;;;;;10.29;47.12;100349.19;5299942;32;33607;-74
2023/04/07 11:39:03;;;;;;;;;;;;;;;9.83;50.21;100355.25;5312338;32;34153;-76
2023/04/07 11:42:05;;;;;;;;;;;;;;;10.32;47.63;100329.84;5318749;32;33180;-70
2023/04/07 11:45:18;;;;;;;;;;;;;;;10.98;46.33;100343.81;5310670;32;33981;-70
2023/04/07 11:48:29;;;;;;;;;;;;;;;11.26;45.28;100343.50;5308855;32;45110;-74
2023/04/07 11:51:31;;;;;;;;;;;;;;;9.69;49.82;100351.38;5296613;32;33640;-70
2023/04/07 11:54:40;;;;;;;;;;;;;;;9.15;51.51;100352.41;5319608;32;32997;-74
2023/04/07 11:57:42;;;;;;;;;;;;;;;9.75;50.23;100347.69;5309132;32;43786;-70
2023/04/07 12:00:56;;;;;;;;;;;;;;;9.49;50.83;100351.22;5310206;32;34880;-75
2023/04/07 12:04:00;;;;;;;;;;;;;;;9.80;50.02;100350.16;5320032;32;33877;-71
2023/04/07 12:07:06;;;;;;;;;;;;;;;10.45;48.15;100352.09;5312478;32;33346;-75
2023/04/07 12:10:21;;;;;;;;;;;;;;;9.97;49.32;100342.47;5307954;32;32816;-75
2023/04/07 12:13:23;;;;;;;;;;;;;;;9.60;50.44;100363.97;5309809;32;34218;-76
2023/04/07 12:16:25;;;;;;;;;;;;;;;10.08;48.71;100350.81;5309540;32;34298;-76
2023/04/07 12:19:27;;;;;;;;;;;;;;;9.26;51.30;100359.88;5307664;32;33735;-74
2023/04/07 12:22:29;;;;;;;;;;;;;;;10.06;48.43;100351.81;5299510;32;34135;-75
2023/04/07 12:25:31;;;;;;;;;;;;;;;11.02;45.99;100343.62;5315429;32;33383;-71
2023/04/07 12:28:33;;;;;;;;;;;;;;;10.24;47.24;100345.87;5308501;32;33076;-71
2023/04/07 12:31:35;;;;;;;;;;;;;;;9.81;48.99;100343.97;5300221;32;33115;-69
2023/04/07 12:34:38;;;;;;;;;;;;;;;9.30;50.35;100344.91;5324333;32;33317;-74
2023/04/07 12:37:40;;;;;;;;;;;;;;;9.17;50.80;100350.56;5317886;32;33794;-70
2023/04/07 12:40:42;;;;;;;;;;;;;;;10.88;46.34;100335.44;5336443;32;44623;-70
2023/04/07 12:43:44;;;;;;;;;;;;;;;10.40;47.29;100333.84;5321009;32;35606;-70
2023/04/07 12:46:47;;;;;;;;;;;;;;;9.56;49.14;100355.34;5309245;32;34316;-70
2023/04/07 12:49:49;;;;;;;;;;;;;;;10.75;46.86;100342.09;5307778;32;34869;-75
2023/04/07 12:52:52;;;;;;;;;;;;;;;11.41;44.55;100339.38;5327839;32;34369;-70
2023/04/07 12:55:55;;;;;;;;;;;;;;;10.59;46.70;100341.87;5301775;32;35533;-75
2023/04/07 12:58:57;;;;;;;;;;;;;;;11.16;45.43;100348.31;5308831;32;33752;-70
2023/04/07 13:01:59;;;;;;;;;;;;;;;10.23;47.12;100350.25;5321891;32;33616;-73
2023/04/07 13:05:01;;;;;;;;;;;;;;;9.03;51.01;100359.81;5299798;32;34118;-75
2023/04/07 13:08:03;;;;;;;;;;;;;;;9.25;50.25;100359.94;5321880;32;34004;-70
2023/04/07 13:11:05;;;;;;;;;;;;;;;9.57;50.34;100359.69;5297053;32;34127;-74
2023/04/07 13:14:08;;;;;;;;;;;;;;;10.27;48.17;100357.12;5306956;32;33251;-70
2023/04/07 13:17:10;;;;;;;;;;;;;;;10.19;48.54;100353.06;5294433;32;36293;-70
2023/04/07 13:20:12;;;;;;;;;;;;;;;9.60;50.27;100361.34;5308567;32;33754;-70
2023/04/07 13:23:14;;;;;;;;;;;;;;;9.16;51.50;100354.09;5331092;32;33009;-75
2023/04/07 13:26:16;;;;;;;;;;;;;;;10.16;49.15;100354.00;5303379;32;33380;-75
2023/04/07 13:29:19;;;;;;;;;;;;;;;10.70;47.38;100347.56;5300223;32;32576;-70
2023/04/07 13:32:21;;;;;;;;;;;;;;;10.96;46.75;100350.91;5300960;32;33848;-73
2023/04/07 13:35:23;;;;;;;;;;;;;;;9.52;49.87;100356.34;5333593;32;33678;-70
2023/04/07 13:38:25;;;;;;;;;;;;;;;10.29;48.67;100343.91;5315386;32;33742;-70
2023/04/07 13:41:27;;;;;;;;;;;;;;;9.57;49.87;100354.44;5314400;32;33133;-70
2023/04/07 13:44:29;;;;;;;;;;;;;;;9.84;49.89;100355.19;5308173;32;33593;-73
2023/04/07 13:47:34;;;;;;;;;;;;;;;9.40;50.28;100360.28;5295200;32;33627;-71
2023/04/07 13:50:37;;;;;;;;;;;;;;;8.95;51.58;100373.16;5321869;32;33680;-71
2023/04/07 13:53:39;;;;;;;;;;;;;;;9.42;50.48;100373.34;5300627;32;34385;-71
2023/04/07 13:56:41;;;;;;;;;;;;;;;9.92;49.65;100365.44;5305217;32;44674;-76
2023/04/07 13:59:43;;;;;;;;;;;;;;;9.79;50.06;100372.91;5299379;32;34099;-70
2023/04/07 14:02:46;;;;;;;;;;;;;;;9.70;49.48;100371.44;5308564;32;35691;-75
2023/04/07 14:05:48;;;;;;;;;;;;;;;10.84;46.75;100354.91;5318909;32;32939;-71
2023/04/07 14:08:50;;;;;;;;;;;;;;;11.04;45.47;100360.19;5313035;32;33351;-71
2023/04/07 14:11:52;;;;;;;;;;;;;;;10.23;47.87;100365.16;5324304;32;33466;-70
2023/04/07 14:14:55;;;;;;;;;;;;;;;10.58;47.35;100361.19;5315311;32;33840;-70
2023/04/07 14:17:57;;;;;;;;;;;;;;;10.01;48.91;100360.69;5325097;32;33898;-70
2023/04/07 14:21:00;;;;;;;;;;;;;;;10.06;48.49;100357.91;5307556;32;33412;-76
2023/04/07 14:24:02;;;;;;;;;;;;;;;9.99;49.10;100357.28;5310180;32;34354;-70
2023/04/07 14:27:04;;;;;;;;;;;;;;;9.50;50.56;100363.44;5321970;32;33694;-73
2023/04/07 14:30:07;;;;;;;;;;;;;;;10.02;49.23;100356.31;5296343;32;33956;-75
2023/04/07 14:33:09;;;;;;;;;;;;;;;10.18;48.59;100362.72;5320631;32;34073;-70
2023/04/07 14:36:13;;;;;;;;;;;;;;;10.02;48.71;100372.06;5319959;32;45744;-70
2023/04/07 14:39:14;;;;;;;;;;;;;;;10.62;47.11;100362.75;5329096;32;34211;-76
2023/04/07 14:42:16;;;;;;;;;;;;;;;10.52;47.04;100362.28;5327250;32;34142;-70
2023/04/07 14:45:18;;;;;;;;;;;;;;;10.27;47.29;100372.87;5323357;32;33595;-75
2023/04/07 14:48:21;;;;;;;;;;;;;;;9.93;48.97;100372.41;5315672;32;34782;-70
2023/04/07 14:51:23;;;;;;;;;;;;;;;10.17;48.67;100373.25;5306720;32;33958;-70
2023/04/07 14:54:25;;;;;;;;;;;;;;;9.70;48.86;100376.69;5313075;32;33611;-73
2023/04/07 14:57:27;;;;;;;;;;;;;;;10.16;48.50;100374.16;5319430;32;33499;-70
2023/04/07 15:00:29;;;;;;;;;;;;;;;9.98;48.74;100366.09;5301238;32;32967;-71
2023/04/07 15:03:32;;;;;;;;;;;;;;;10.48;47.10;100371.19;5299813;32;33660;-74
2023/04/07 15:06:34;;;;;;;;;;;;;;;10.80;46.84;100359.41;5298443;32;34166;-74
2023/04/07 15:09:36;;;;;;;;;;;;;;;10.59;46.60;100373.41;5320738;32;34150;-73
2023/04/07 15:12:38;;;;;;;;;;;;;;;10.05;48.21;100377.22;5308627;32;33065;-75
2023/04/07 15:15:40;;;;;;;;;;;;;;;9.49;50.08;100382.72;5323268;32;36741;-74
2023/04/07 15:18:43;;;;;;;;;;;;;;;10.43;48.18;100374.91;5309669;32;34358;-75
2023/04/07 15:21:45;;;;;;;;;;;;;;;10.57;47.55;100376.09;5314898;32;33665;-71
2023/04/07 15:24:47;;;;;;;;;;;;;;;10.91;46.93;100373.91;5322394;32;34060;-71
2023/04/07 15:27:49;;;;;;;;;;;;;;;11.00;46.38;100373.50;5324775;32;34215;-70
2023/04/07 15:30:51;;;;;;;;;;;;;;;10.88;46.52;100374.88;5306384;32;33938;-75
2023/04/07 15:33:53;;;;;;;;;;;;;;;9.93;48.82;100377.66;5298785;32;34785;-71
2023/04/07 15:36:55;;;;;;;;;;;;;;;10.37;47.72;100380.41;5321572;32;34620;-72
2023/04/07 15:39:57;;;;;;;;;;;;;;;10.62;47.59;100377.69;5294929;32;33212;-71
2023/04/07 15:42:59;;;;;;;;;;;;;;;10.67;47.60;100371.31;5311768;32;34483;-71
2023/04/07 15:46:01;;;;;;;;;;;;;;;10.55;48.01;100377.91;5321234;32;34252;-72
2023/04/07 15:49:03;;;;;;;;;;;;;;;10.72;47.44;100373.78;5309515;32;33619;-76
2023/04/07 15:52:05;;;;;;;;;;;;;;;10.51;48.34;100375.50;5311621;32;33982;-76
2023/04/07 15:55:07;;;;;;;;;;;;;;;10.06;49.30;100384.16;5327639;32;33517;-70